Time;durP1;ratioP1;P1;durP2;ratioP2;P2;SDS_P1;SDS_P2;PMS_P1;PMS_P2;Temp;Humidity;BMP_temperature;BMP_pressure;BME280_temperature;BME280_humidity;BME280_pressure;Samples;Min_cycle;Max_cycle;Signal;HPM_P1;HPM_P2
2023/06/12 00:01:58;;;;;;;4.55;2.03;;;;;;;;;;5051894;28;20029;-65
2023/06/12 00:04:24;;;;;;;2.25;2.13;;;;;;;;;;5051990;28;20370;-63
2023/06/12 00:06:51;;;;;;;2.90;2.60;;;;;;;;;;5055038;28;20041;-63
2023/06/12 00:09:16;;;;;;;2.70;2.50;;;;;;;;;;5055557;28;20017;-63
2023/06/12 00:11:42;;;;;;;2.50;2.30;;;;;;;;;;5055594;28;20017;-64
2023/06/12 00:14:07;;;;;;;2.67;2.47;;;;;;;;;;5055840;28;20040;-63
2023/06/12 00:16:33;;;;;;;2.70;2.40;;;;;;;;;;5055816;28;20033;-63
2023/06/12 00:18:58;;;;;;;3.10;2.60;;;;;;;;;;5055788;28;20021;-63
2023/06/12 00:21:24;;;;;;;2.50;2.05;;;;;;;;;;5055584;28;20384;-63
2023/06/12 00:23:50;;;;;;;3.63;2.22;;;;;;;;;;5055502;28;20029;-64
2023/06/12 00:26:15;;;;;;;2.40;2.22;;;;;;;;;;5055315;28;20029;-63
2023/06/12 00:28:41;;;;;;;2.75;2.53;;;;;;;;;;5055400;28;20029;-63
2023/06/12 00:31:06;;;;;;;2.40;2.20;;;;;;;;;;5055234;28;20032;-63
2023/06/12 00:33:32;;;;;;;2.80;2.60;;;;;;;;;;5055276;28;20032;-64
2023/06/12 00:35:57;;;;;;;2.70;2.50;;;;;;;;;;5055132;28;20503;-63
2023/06/12 00:38:23;;;;;;;2.47;2.28;;;;;;;;;;5055161;28;20044;-63
2023/06/12 00:40:49;;;;;;;2.80;2.60;;;;;;;;;;5055347;28;20017;-63
2023/06/12 00:43:15;;;;;;;2.60;2.40;;;;;;;;;;5055045;28;20036;-63
2023/06/12 00:45:41;;;;;;;2.42;2.22;;;;;;;;;;5054940;28;20021;-65
2023/06/12 00:48:07;;;;;;;2.85;2.60;;;;;;;;;;5055035;28;20036;-64
2023/06/12 00:50:35;;;;;;;2.30;2.10;;;;;;;;;;5054985;28;20040;-65
2023/06/12 00:53:00;;;;;;;3.03;2.55;;;;;;;;;;5054923;28;20035;-64
2023/06/12 00:55:29;;;;;;;2.55;2.35;;;;;;;;;;5055164;28;20441;-65
2023/06/12 00:57:55;;;;;;;2.58;2.35;;;;;;;;;;5055448;28;20037;-64
2023/06/12 01:00:20;;;;;;;2.33;2.13;;;;;;;;;;5054989;28;20385;-64
2023/06/12 01:02:53;;;;;;;2.58;2.38;;;;;;;;;;5054744;28;20488;-64
2023/06/12 01:05:22;;;;;;;2.53;2.33;;;;;;;;;;5054660;28;20033;-65
2023/06/12 01:08:07;;;;;;;2.88;2.60;;;;;;;;;;5054669;28;20020;-63
2023/06/12 01:10:45;;;;;;;2.58;2.38;;;;;;;;;;5054501;28;20045;-63
2023/06/12 01:13:12;;;;;;;2.40;2.20;;;;;;;;;;5054762;28;20043;-63
2023/06/12 01:15:39;;;;;;;2.72;2.53;;;;;;;;;;5054553;28;20031;-64
2023/06/12 01:18:06;;;;;;;2.47;2.28;;;;;;;;;;5053505;28;20055;-65
2023/06/12 01:20:32;;;;;;;2.65;2.28;;;;;;;;;;5054483;28;20033;-63
2023/06/12 01:23:06;;;;;;;5.32;2.58;;;;;;;;;;5054590;28;20121;-64
2023/06/12 01:25:58;;;;;;;5.68;2.35;;;;;;;;;;5054647;28;20113;-63
2023/06/12 01:28:30;;;;;;;2.38;2.17;;;;;;;;;;5047849;28;20488;-63
2023/06/12 01:31:35;;;;;;;2.80;2.25;;;;;;;;;;5054212;28;20025;-63
2023/06/12 01:34:10;;;;;;;2.63;2.42;;;;;;;;;;5045214;28;20039;-63
2023/06/12 01:36:38;;;;;;;2.40;2.20;;;;;;;;;;5054493;28;20025;-63
2023/06/12 01:39:05;;;;;;;2.50;2.30;;;;;;;;;;5054131;28;20024;-63
2023/06/12 01:41:32;;;;;;;2.67;2.47;;;;;;;;;;5054071;28;20033;-63
2023/06/12 01:44:09;;;;;;;2.70;2.50;;;;;;;;;;5053877;28;20025;-63
2023/06/12 01:46:35;;;;;;;2.65;2.45;;;;;;;;;;5054166;28;20021;-65
2023/06/12 01:49:06;;;;;;;2.35;2.15;;;;;;;;;;5053888;28;20473;-64
2023/06/12 01:51:32;;;;;;;2.80;2.60;;;;;;;;;;5054065;28;20081;-63
2023/06/12 01:53:58;;;;;;;3.88;2.30;;;;;;;;;;5053661;28;20116;-63
2023/06/12 01:56:27;;;;;;;3.13;2.38;;;;;;;;;;5053673;28;20104;-63
2023/06/12 01:58:54;;;;;;;2.45;2.25;;;;;;;;;;5053920;28;20427;-63
2023/06/12 02:01:20;;;;;;;2.28;2.10;;;;;;;;;;5053534;28;20147;-63
2023/06/12 02:03:46;;;;;;;3.72;2.20;;;;;;;;;;5053883;28;20097;-63
2023/06/12 02:06:16;;;;;;;2.53;2.33;;;;;;;;;;5053400;28;20540;-64
2023/06/12 02:08:42;;;;;;;2.70;2.50;;;;;;;;;;5053806;28;20420;-63
2023/06/12 02:11:08;;;;;;;2.33;2.20;;;;;;;;;;5053204;28;20511;-65
2023/06/12 02:13:33;;;;;;;2.25;2.05;;;;;;;;;;5053307;28;20036;-63
2023/06/12 02:16:03;;;;;;;2.50;2.30;;;;;;;;;;5053406;28;20074;-64
2023/06/12 02:18:28;;;;;;;3.20;2.33;;;;;;;;;;5053636;28;20024;-63
2023/06/12 02:20:54;;;;;;;2.60;2.40;;;;;;;;;;5053225;28;20741;-63
2023/06/12 02:23:19;;;;;;;3.95;2.22;;;;;;;;;;5053451;28;20036;-63
2023/06/12 02:25:45;;;;;;;2.47;2.28;;;;;;;;;;5053131;28;20024;-63
2023/06/12 02:28:10;;;;;;;2.25;2.10;;;;;;;;;;5052811;28;20028;-63
2023/06/12 02:30:36;;;;;;;2.40;2.20;;;;;;;;;;5053299;28;20029;-64
2023/06/12 02:33:02;;;;;;;2.40;2.20;;;;;;;;;;5053231;28;20476;-63
2023/06/12 02:35:28;;;;;;;2.63;2.42;;;;;;;;;;5052910;28;20028;-63
2023/06/12 02:37:53;;;;;;;2.50;2.30;;;;;;;;;;5052933;28;20021;-64
2023/06/12 02:40:19;;;;;;;2.30;2.10;;;;;;;;;;5053166;28;20029;-63
2023/06/12 02:42:45;;;;;;;2.33;2.13;;;;;;;;;;5052820;28;20469;-63
2023/06/12 02:45:10;;;;;;;2.15;2.03;;;;;;;;;;5052771;28;20033;-63
2023/06/12 02:47:36;;;;;;;2.65;2.05;;;;;;;;;;5052817;28;20021;-63
2023/06/12 02:50:02;;;;;;;2.70;2.38;;;;;;;;;;5052967;28;20092;-63
2023/06/12 02:52:27;;;;;;;2.60;2.40;;;;;;;;;;5052678;28;20040;-63
2023/06/12 02:54:53;;;;;;;2.10;2.00;;;;;;;;;;5052649;28;20033;-63
2023/06/12 02:57:18;;;;;;;2.50;2.30;;;;;;;;;;5068036;28;20485;-63
2023/06/12 02:59:44;;;;;;;2.67;2.47;;;;;;;;;;5052526;28;20075;-62
2023/06/12 03:02:10;;;;;;;2.45;2.25;;;;;;;;;;5052846;28;20037;-63
2023/06/12 03:04:35;;;;;;;2.45;2.30;;;;;;;;;;5052460;28;20029;-63
2023/06/12 03:07:05;;;;;;;2.13;2.00;;;;;;;;;;5052538;28;20044;-64
2023/06/12 03:09:32;;;;;;;2.25;2.15;;;;;;;;;;5052242;28;20048;-65
2023/06/12 03:11:58;;;;;;;2.47;2.28;;;;;;;;;;5052356;28;20119;-64
2023/06/12 03:14:26;;;;;;;2.92;2.45;;;;;;;;;;5052628;28;20353;-64
2023/06/12 03:16:51;;;;;;;2.25;2.10;;;;;;;;;;5052712;28;20087;-66
2023/06/12 03:19:17;;;;;;;2.67;2.38;;;;;;;;;;5052612;28;20391;-66
2023/06/12 03:21:43;;;;;;;2.47;2.28;;;;;;;;;;5052336;28;20032;-65
2023/06/12 03:24:09;;;;;;;2.10;1.90;;;;;;;;;;5052517;28;20063;-66
2023/06/12 03:26:34;;;;;;;2.47;2.28;;;;;;;;;;5052593;28;20480;-64
2023/06/12 03:29:01;;;;;;;2.20;2.00;;;;;;;;;;5052274;28;20489;-63
2023/06/12 03:31:27;;;;;;;2.22;2.05;;;;;;;;;;5052322;28;20033;-64
2023/06/12 03:33:54;;;;;;;2.40;2.20;;;;;;;;;;5052131;28;20047;-64
2023/06/12 03:36:21;;;;;;;2.13;2.03;;;;;;;;;;5052250;28;20033;-66
2023/06/12 03:38:47;;;;;;;2.10;1.95;;;;;;;;;;5052169;28;20389;-66
2023/06/12 03:41:12;;;;;;;2.15;2.05;;;;;;;;;;5054191;28;20033;-63
2023/06/12 03:43:38;;;;;;;2.40;2.20;;;;;;;;;;5056134;28;20021;-64
2023/06/12 03:46:04;;;;;;;2.38;2.17;;;;;;;;;;5056505;28;20048;-64
2023/06/12 03:48:29;;;;;;;2.33;2.13;;;;;;;;;;5056347;28;20090;-64
2023/06/12 03:50:55;;;;;;;2.00;1.90;;;;;;;;;;5056332;28;20461;-64
2023/06/12 03:53:21;;;;;;;2.40;2.15;;;;;;;;;;5056192;28;20028;-64
2023/06/12 03:55:46;;;;;;;2.45;2.25;;;;;;;;;;5055976;28;20125;-67
2023/06/12 03:58:16;;;;;;;2.45;2.25;;;;;;;;;;5056192;28;20020;-67
2023/06/12 04:00:47;;;;;;;2.40;2.20;;;;;;;;;;5055964;28;20079;-66
2023/06/12 04:03:17;;;;;;;3.55;2.20;;;;;;;;;;5054627;28;20064;-66
2023/06/12 04:05:45;;;;;;;3.50;2.33;;;;;;;;;;5055843;28;20029;-66
2023/06/12 04:08:10;;;;;;;2.38;2.17;;;;;;;;;;5055788;28;20086;-67
2023/06/12 04:10:36;;;;;;;2.60;2.40;;;;;;;;;;5055593;28;20045;-63
2023/06/12 04:13:01;;;;;;;2.30;2.10;;;;;;;;;;5055831;28;20036;-63
2023/06/12 04:15:29;;;;;;;2.08;1.98;;;;;;;;;;5055895;28;20076;-63
2023/06/12 04:17:55;;;;;;;2.60;2.40;;;;;;;;;;5055541;28;20057;-63
2023/06/12 04:20:20;;;;;;;2.13;1.90;;;;;;;;;;5055529;28;20064;-63
2023/06/12 04:22:47;;;;;;;2.28;2.10;;;;;;;;;;5055501;28;20060;-63
2023/06/12 04:25:13;;;;;;;2.33;2.13;;;;;;;;;;5055462;28;20137;-63
2023/06/12 04:27:42;;;;;;;2.60;2.40;;;;;;;;;;5055291;28;20056;-63
2023/06/12 04:30:09;;;;;;;2.25;2.10;;;;;;;;;;5055608;28;20029;-63
2023/06/12 04:32:35;;;;;;;3.80;2.00;;;;;;;;;;5055091;28;20025;-65
2023/06/12 04:35:01;;;;;;;2.42;2.22;;;;;;;;;;5055458;28;20033;-63
2023/06/12 04:37:27;;;;;;;2.63;2.30;;;;;;;;;;5055159;28;20070;-63
2023/06/12 04:39:53;;;;;;;2.33;2.13;;;;;;;;;;5055096;28;20044;-65
2023/06/12 04:42:18;;;;;;;2.03;1.92;;;;;;;;;;5055286;28;20033;-63
2023/06/12 04:44:46;;;;;;;2.42;2.25;;;;;;;;;;5055288;28;20416;-66
2023/06/12 04:47:14;;;;;;;2.40;2.20;;;;;;;;;;5055014;28;20122;-64
2023/06/12 04:49:41;;;;;;;2.40;2.20;;;;;;;;;;5054969;28;20036;-64
2023/06/12 04:52:08;;;;;;;2.50;2.10;;;;;;;;;;5054845;28;20175;-64
2023/06/12 04:54:38;;;;;;;2.47;2.28;;;;;;;;;;5055084;28;20029;-64
2023/06/12 04:57:12;;;;;;;2.95;2.15;;;;;;;;;;5055074;28;20090;-64
2023/06/12 04:59:39;;;;;;;2.30;2.10;;;;;;;;;;5054801;28;20032;-65
2023/06/12 05:02:07;;;;;;;2.58;2.00;;;;;;;;;;5054643;28;20025;-64
2023/06/12 05:04:32;;;;;;;2.17;2.00;;;;;;;;;;5055014;28;20424;-65
2023/06/12 05:06:59;;;;;;;2.80;2.00;;;;;;;;;;5054581;28;20044;-63
2023/06/12 05:09:25;;;;;;;2.03;1.88;;;;;;;;;;5054403;28;20485;-64
2023/06/12 05:11:51;;;;;;;2.53;2.33;;;;;;;;;;5054364;28;20495;-64
2023/06/12 05:14:19;;;;;;;2.42;2.22;;;;;;;;;;5054738;28;20115;-64
2023/06/12 05:16:46;;;;;;;1.98;1.88;;;;;;;;;;5054688;28;20032;-64
2023/06/12 05:19:13;;;;;;;2.53;2.33;;;;;;;;;;5054386;28;20025;-64
2023/06/12 05:21:41;;;;;;;2.40;2.20;;;;;;;;;;5054259;28;20083;-66
2023/06/12 05:24:10;;;;;;;2.10;2.00;;;;;;;;;;5054594;28;20033;-64
2023/06/12 05:26:35;;;;;;;2.45;2.25;;;;;;;;;;5054496;28;20419;-64
2023/06/12 05:29:01;;;;;;;1.95;1.85;;;;;;;;;;5054158;28;20074;-64
2023/06/12 05:31:28;;;;;;;2.13;1.98;;;;;;;;;;5054106;28;20086;-64
2023/06/12 05:33:54;;;;;;;2.50;2.30;;;;;;;;;;5054008;28;20468;-64
2023/06/12 05:36:20;;;;;;;2.35;2.15;;;;;;;;;;5054156;28;20131;-63
2023/06/12 05:38:46;;;;;;;2.28;2.08;;;;;;;;;;5053944;28;20474;-64
2023/06/12 05:41:15;;;;;;;2.20;2.10;;;;;;;;;;5054298;28;20388;-64
2023/06/12 05:43:44;;;;;;;2.20;2.10;;;;;;;;;;5053914;28;20025;-66
2023/06/12 05:46:10;;;;;;;2.13;1.92;;;;;;;;;;5054184;28;20040;-64
2023/06/12 05:48:36;;;;;;;2.78;2.53;;;;;;;;;;5053741;28;20025;-64
2023/06/12 05:51:02;;;;;;;2.47;2.28;;;;;;;;;;5053833;28;20389;-64
2023/06/12 05:53:28;;;;;;;2.45;2.25;;;;;;;;;;5053910;28;20033;-64
2023/06/12 05:55:53;;;;;;;2.40;2.20;;;;;;;;;;5054042;28;20028;-64
2023/06/12 05:58:20;;;;;;;2.38;2.17;;;;;;;;;;5053713;28;20040;-64
2023/06/12 06:00:49;;;;;;;2.10;1.90;;;;;;;;;;5053991;28;20057;-65
2023/06/12 06:03:18;;;;;;;2.50;2.30;;;;;;;;;;5052762;28;20451;-65
2023/06/12 06:05:43;;;;;;;2.80;2.20;;;;;;;;;;5053794;28;20047;-64
2023/06/12 06:08:10;;;;;;;2.10;2.00;;;;;;;;;;5053420;28;20595;-64
2023/06/12 06:10:36;;;;;;;2.50;2.30;;;;;;;;;;5052215;28;20064;-64
2023/06/12 06:13:01;;;;;;;2.30;2.10;;;;;;;;;;5053189;28;20472;-65
2023/06/12 06:15:27;;;;;;;2.50;2.22;;;;;;;;;;5053644;28;20037;-64
2023/06/12 06:17:52;;;;;;;2.47;2.28;;;;;;;;;;5053278;28;20400;-65
2023/06/12 06:20:18;;;;;;;2.75;2.25;;;;;;;;;;5053223;28;20028;-64
2023/06/12 06:22:43;;;;;;;2.40;2.20;;;;;;;;;;5053320;28;20068;-64
2023/06/12 06:25:09;;;;;;;3.72;2.10;;;;;;;;;;5052999;28;20028;-65
2023/06/12 06:27:35;;;;;;;2.35;2.15;;;;;;;;;;5052895;28;20044;-65
2023/06/12 06:30:02;;;;;;;2.40;2.20;;;;;;;;;;5053015;28;20029;-67
2023/06/12 06:32:28;;;;;;;2.45;2.25;;;;;;;;;;5053079;28;20384;-66
2023/06/12 06:34:54;;;;;;;2.30;2.10;;;;;;;;;;5051566;28;20028;-66
2023/06/12 06:37:20;;;;;;;2.28;2.17;;;;;;;;;;5053174;28;20136;-66
2023/06/12 06:39:46;;;;;;;2.30;2.10;;;;;;;;;;5052852;28;20558;-66
2023/06/12 06:42:12;;;;;;;2.90;2.15;;;;;;;;;;5053156;28;20129;-65
2023/06/12 06:44:38;;;;;;;1.88;1.77;;;;;;;;;;5052974;28;20043;-67
2023/06/12 06:47:04;;;;;;;2.65;2.45;;;;;;;;;;5052616;28;20060;-66
2023/06/12 06:49:30;;;;;;;3.65;2.17;;;;;;;;;;5052594;28;20017;-66
2023/06/12 06:51:56;;;;;;;2.58;1.90;;;;;;;;;;5052546;28;20384;-66
2023/06/12 06:54:22;;;;;;;2.30;2.10;;;;;;;;;;5052570;28;20407;-66
2023/06/12 06:56:48;;;;;;;2.47;2.28;;;;;;;;;;5051372;28;20025;-66
2023/06/12 06:59:15;;;;;;;2.42;2.22;;;;;;;;;;5052935;28;20025;-66
2023/06/12 07:01:41;;;;;;;4.38;2.25;;;;;;;;;;5052752;28;20028;-66
2023/06/12 07:04:07;;;;;;;2.00;1.90;;;;;;;;;;5051274;28;20032;-66
2023/06/12 07:06:33;;;;;;;2.08;1.98;;;;;;;;;;5052521;28;20112;-65
2023/06/12 07:09:02;;;;;;;2.20;2.00;;;;;;;;;;5051044;28;20381;-66
2023/06/12 07:11:28;;;;;;;2.40;2.20;;;;;;;;;;5052396;28;20025;-65
2023/06/12 07:13:54;;;;;;;2.30;2.10;;;;;;;;;;5052344;28;20037;-66
2023/06/12 07:16:19;;;;;;;2.58;2.17;;;;;;;;;;5052551;28;20032;-67
2023/06/12 07:18:45;;;;;;;2.55;2.35;;;;;;;;;;5052231;28;20017;-66
2023/06/12 07:21:11;;;;;;;2.40;2.20;;;;;;;;;;5052181;28;20100;-67
2023/06/12 07:23:37;;;;;;;2.20;2.10;;;;;;;;;;5052276;28;20025;-67
2023/06/12 07:26:03;;;;;;;2.17;1.98;;;;;;;;;;5052479;28;20029;-66
2023/06/12 07:28:28;;;;;;;2.40;2.17;;;;;;;;;;5052396;28;20017;-67
2023/06/12 07:30:54;;;;;;;2.00;1.90;;;;;;;;;;5052219;28;20491;-67
2023/06/12 07:33:20;;;;;;;2.35;2.17;;;;;;;;;;5049059;28;20488;-68
2023/06/12 07:35:46;;;;;;;2.35;2.08;;;;;;;;;;5040035;28;20028;-67
2023/06/12 07:38:12;;;;;;;2.60;2.08;;;;;;;;;;5042867;28;20381;-69
2023/06/12 07:40:38;;;;;;;6.13;2.15;;;;;;;;;;5040369;28;20108;-66
2023/06/12 07:43:04;;;;;;;2.25;2.05;;;;;;;;;;5042833;28;20130;-64
2023/06/12 07:45:30;;;;;;;2.30;2.10;;;;;;;;;;5043632;28;20047;-67
2023/06/12 07:47:57;;;;;;;2.25;2.05;;;;;;;;;;5048107;28;20029;-67
2023/06/12 07:50:26;;;;;;;1.90;1.80;;;;;;;;;;5051969;28;20021;-67
2023/06/12 07:52:52;;;;;;;2.90;2.00;;;;;;;;;;5050321;28;20037;-69
2023/06/12 07:55:18;;;;;;;1.98;1.88;;;;;;;;;;5050130;28;20017;-66
2023/06/12 07:57:43;;;;;;;1.90;1.80;;;;;;;;;;5048158;28;20365;-64
2023/06/12 08:00:10;;;;;;;2.30;2.10;;;;;;;;;;5050275;28;20480;-68
2023/06/12 08:02:35;;;;;;;2.20;2.00;;;;;;;;;;5052009;28;20025;-68
2023/06/12 08:05:04;;;;;;;2.20;2.00;;;;;;;;;;5051808;28;20541;-65
2023/06/12 08:07:33;;;;;;;2.22;1.88;;;;;;;;;;5052104;28;20488;-69
2023/06/12 08:09:58;;;;;;;2.60;1.97;;;;;;;;;;5050883;28;20057;-67
2023/06/12 08:12:24;;;;;;;2.10;1.90;;;;;;;;;;5050450;28;20017;-68
2023/06/12 08:14:53;;;;;;;2.50;2.30;;;;;;;;;;5050213;28;20049;-66
2023/06/12 08:17:20;;;;;;;2.05;1.95;;;;;;;;;;5049948;28;20037;-69
2023/06/12 08:19:48;;;;;;;1.88;1.77;;;;;;;;;;5049839;28;20103;-64
2023/06/12 08:22:15;;;;;;;2.05;1.90;;;;;;;;;;5050339;28;20113;-67
2023/06/12 08:24:43;;;;;;;2.13;2.00;;;;;;;;;;5049473;28;20469;-64
2023/06/12 08:27:11;;;;;;;2.10;1.90;;;;;;;;;;5041247;28;20468;-67
2023/06/12 08:29:37;;;;;;;2.45;2.10;;;;;;;;;;5036302;28;20030;-65
2023/06/12 08:32:03;;;;;;;2.05;1.85;;;;;;;;;;5037684;28;20025;-67
2023/06/12 08:34:29;;;;;;;2.30;2.10;;;;;;;;;;5040572;28;20125;-68
2023/06/12 08:36:55;;;;;;;1.90;1.80;;;;;;;;;;5043464;28;20148;-66
2023/06/12 08:39:20;;;;;;;3.38;2.00;;;;;;;;;;5043086;28;20033;-68
2023/06/12 08:41:57;;;;;;;3.67;2.03;;;;;;;;;;5043935;28;20468;-69
2023/06/12 08:44:24;;;;;;;2.10;1.90;;;;;;;;;;5054045;28;20068;-66
2023/06/12 08:46:54;;;;;;;2.00;1.90;;;;;;;;;;5040103;28;20436;-64
2023/06/12 08:49:20;;;;;;;2.00;1.80;;;;;;;;;;5043144;28;20117;-64
2023/06/12 08:51:48;;;;;;;1.98;1.88;;;;;;;;;;5041628;28;20108;-67
2023/06/12 08:54:15;;;;;;;2.00;1.90;;;;;;;;;;5036741;28;20443;-67
2023/06/12 08:56:42;;;;;;;1.95;1.80;;;;;;;;;;5033576;28;20021;-70
2023/06/12 08:59:09;;;;;;;1.80;1.70;;;;;;;;;;5033142;28;20029;-66
2023/06/12 09:01:37;;;;;;;1.70;1.60;;;;;;;;;;5033254;28;20028;-68
2023/06/12 09:04:18;;;;;;;10.82;2.17;;;;;;;;;;5037216;28;20087;-70
2023/06/12 09:06:45;;;;;;;2.50;1.70;;;;;;;;;;5068089;28;20041;-65
2023/06/12 09:09:11;;;;;;;2.55;2.15;;;;;;;;;;5052840;28;20021;-66
2023/06/12 09:11:37;;;;;;;6.57;2.28;;;;;;;;;;5049860;28;20087;-67
2023/06/12 09:14:03;;;;;;;3.45;2.10;;;;;;;;;;5040540;28;20090;-65
2023/06/12 09:16:28;;;;;;;3.85;1.98;;;;;;;;;;5049195;28;20476;-66
2023/06/12 09:18:56;;;;;;;7.18;2.20;;;;;;;;;;5053045;28;20021;-67
2023/06/12 09:21:23;;;;;;;2.92;2.22;;;;;;;;;;5052672;28;20483;-63
2023/06/12 09:23:54;;;;;;;3.83;2.30;;;;;;;;;;5051455;28;20514;-66
2023/06/12 09:26:21;;;;;;;2.13;1.92;;;;;;;;;;5051989;28;20472;-66
2023/06/12 09:28:54;;;;;;;6.35;1.70;;;;;;;;;;5052118;28;20036;-66
2023/06/12 09:31:20;;;;;;;3.70;1.77;;;;;;;;;;5052144;28;20021;-67
2023/06/12 09:33:49;;;;;;;1.92;1.73;;;;;;;;;;5052362;28;20051;-66
2023/06/12 09:36:18;;;;;;;1.90;1.80;;;;;;;;;;5051780;28;20040;-65
2023/06/12 09:38:48;;;;;;;3.33;2.30;;;;;;;;;;5042642;28;20018;-66
2023/06/12 09:41:14;;;;;;;2.00;1.80;;;;;;;;;;5040704;28;20444;-64
2023/06/12 09:43:40;;;;;;;3.40;1.92;;;;;;;;;;5034440;28;20061;-66
2023/06/12 09:46:08;;;;;;;2.40;2.15;;;;;;;;;;5033439;28;20112;-66
2023/06/12 09:48:38;;;;;;;2.00;1.90;;;;;;;;;;5046249;28;20037;-66
2023/06/12 09:51:05;;;;;;;2.05;1.95;;;;;;;;;;5048998;28;20079;-67
2023/06/12 09:53:35;;;;;;;2.45;2.03;;;;;;;;;;5052351;28;20064;-65
2023/06/12 09:56:11;;;;;;;2.13;1.95;;;;;;;;;;5045577;28;20040;-67
2023/06/12 09:58:38;;;;;;;2.03;1.80;;;;;;;;;;5040411;28;20028;-66
2023/06/12 10:01:08;;;;;;;3.00;2.20;;;;;;;;;;5049033;28;20037;-65
2023/06/12 10:03:40;;;;;;;5.63;2.40;;;;;;;;;;5052412;28;20047;-65
2023/06/12 10:06:08;;;;;;;6.00;2.00;;;;;;;;;;5052151;28;20047;-65
2023/06/12 10:08:34;;;;;;;6.22;2.08;;;;;;;;;;5051244;28;20082;-65
2023/06/12 10:11:02;;;;;;;2.60;2.03;;;;;;;;;;5051261;28;20041;-65
2023/06/12 10:13:28;;;;;;;1.90;1.80;;;;;;;;;;5045558;28;20123;-65
2023/06/12 10:15:55;;;;;;;2.17;1.98;;;;;;;;;;5034186;28;20029;-65
2023/06/12 10:18:23;;;;;;;2.60;1.92;;;;;;;;;;5031561;28;20064;-65
2023/06/12 10:20:50;;;;;;;2.20;1.80;;;;;;;;;;5048418;28;20488;-66
2023/06/12 10:23:16;;;;;;;1.70;1.60;;;;;;;;;;5042001;28;20381;-68
2023/06/12 10:25:42;;;;;;;2.45;1.80;;;;;;;;;;5035554;28;20032;-66
2023/06/12 10:28:08;;;;;;;3.13;1.88;;;;;;;;;;5031590;28;20033;-67
2023/06/12 10:30:34;;;;;;;2.55;2.10;;;;;;;;;;5031654;28;20043;-66
2023/06/12 10:33:08;;;;;;;3.88;2.20;;;;;;;;;;5030142;28;20112;-65
2023/06/12 10:35:34;;;;;;;6.55;2.13;;;;;;;;;;5031623;28;20033;-66
2023/06/12 10:38:02;;;;;;;8.23;2.25;;;;;;;;;;5031568;28;20540;-65
2023/06/12 10:40:30;;;;;;;2.00;1.83;;;;;;;;;;5031015;28;20423;-66
2023/06/12 10:43:04;;;;;;;4.28;1.90;;;;;;;;;;5036740;28;20025;-64
2023/06/12 10:45:31;;;;;;;5.10;2.90;;;;;;;;;;5045053;28;20041;-65
2023/06/12 10:48:05;;;;;;;3.50;2.30;;;;;;;;;;5036927;28;20052;-65
2023/06/12 10:50:42;;;;;;;8.27;2.00;;;;;;;;;;5030760;28;20117;-66
2023/06/12 10:53:15;;;;;;;2.67;1.70;;;;;;;;;;5031095;28;20111;-65
2023/06/12 10:55:44;;;;;;;3.88;2.60;;;;;;;;;;5031052;28;20474;-66
2023/06/12 10:58:13;;;;;;;2.35;2.15;;;;;;;;;;5036411;28;20088;-65
2023/06/12 11:00:45;;;;;;;3.97;2.33;;;;;;;;;;5036005;28;20021;-68
2023/06/12 11:03:17;;;;;;;2.78;2.53;;;;;;;;;;5031116;28;20048;-69
2023/06/12 11:05:51;;;;;;;5.25;2.95;;;;;;;;;;5030949;28;20026;-65
2023/06/12 11:08:18;;;;;;;2.40;2.20;;;;;;;;;;5030838;28;20037;-65
2023/06/12 11:10:44;;;;;;;3.05;2.55;;;;;;;;;;5029460;28;20646;-65
2023/06/12 11:13:10;;;;;;;2.60;2.40;;;;;;;;;;5030552;28;20029;-65
2023/06/12 11:15:44;;;;;;;5.40;2.20;;;;;;;;;;5030608;28;20029;-67
2023/06/12 11:18:11;;;;;;;2.97;2.20;;;;;;;;;;5035712;28;20040;-65
2023/06/12 11:20:36;;;;;;;8.80;3.00;;;;;;;;;;5033075;28;20034;-66
2023/06/12 11:23:02;;;;;;;8.50;2.50;;;;;;;;;;5033566;28;20029;-64
2023/06/12 11:25:44;;;;;;;4.75;2.80;;;;;;;;;;5040131;28;20063;-67
2023/06/12 11:28:14;;;;;;;8.43;3.20;;;;;;;;;;5033978;28;20020;-65
2023/06/12 11:30:40;;;;;;;6.85;3.03;;;;;;;;;;5042638;28;20033;-65
2023/06/12 11:33:10;;;;;;;3.58;3.28;;;;;;;;;;5045282;28;20037;-67
2023/06/12 11:35:42;;;;;;;6.22;3.70;;;;;;;;;;5042318;28;20060;-66
2023/06/12 11:38:16;;;;;;;9.07;3.55;;;;;;;;;;5045941;28;20032;-65
2023/06/12 11:40:42;;;;;;;3.17;2.60;;;;;;;;;;5043315;28;20092;-67
2023/06/12 11:43:08;;;;;;;5.07;2.70;;;;;;;;;;5032153;28;20498;-65
2023/06/12 11:45:41;;;;;;;3.53;2.35;;;;;;;;;;5039341;28;20029;-68
2023/06/12 11:48:13;;;;;;;2.63;2.42;;;;;;;;;;5040744;28;20473;-66
2023/06/12 11:50:39;;;;;;;4.47;2.53;;;;;;;;;;5046436;28;20029;-64
2023/06/12 11:53:05;;;;;;;3.83;2.10;;;;;;;;;;5030087;28;20033;-65
2023/06/12 11:55:32;;;;;;;3.22;2.45;;;;;;;;;;5030461;28;20088;-65
2023/06/12 11:58:01;;;;;;;4.28;2.40;;;;;;;;;;5028946;28;20131;-66
2023/06/12 12:00:30;;;;;;;2.83;2.17;;;;;;;;;;5030675;28;20029;-65
2023/06/12 12:03:01;;;;;;;5.13;2.63;;;;;;;;;;5033256;28;20508;-63
2023/06/12 12:05:27;;;;;;;5.43;3.40;;;;;;;;;;5034403;28;20322;-63
2023/06/12 12:07:57;;;;;;;7.93;2.95;;;;;;;;;;5033885;28;20053;-63
2023/06/12 12:10:24;;;;;;;3.97;2.90;;;;;;;;;;5033955;28;20068;-63
2023/06/12 12:12:59;;;;;;;3.38;2.72;;;;;;;;;;5041628;28;20469;-62
2023/06/12 12:15:26;;;;;;;7.20;2.65;;;;;;;;;;5044954;28;20508;-62
2023/06/12 12:17:55;;;;;;;2.63;2.30;;;;;;;;;;5052562;28;20025;-66
2023/06/12 12:20:23;;;;;;;3.77;2.53;;;;;;;;;;5053727;28;20416;-62
2023/06/12 12:22:54;;;;;;;3.53;2.40;;;;;;;;;;5053806;28;20049;-63
2023/06/12 12:25:22;;;;;;;9.73;2.30;;;;;;;;;;5054051;28;20384;-64
2023/06/12 12:27:50;;;;;;;3.10;1.95;;;;;;;;;;5053729;28;20029;-62
2023/06/12 12:30:17;;;;;;;3.47;2.28;;;;;;;;;;5053461;28;20477;-65
2023/06/12 12:32:48;;;;;;;7.05;2.17;;;;;;;;;;5047373;28;20033;-62
2023/06/12 12:35:17;;;;;;;5.13;1.92;;;;;;;;;;5044233;28;20419;-62
2023/06/12 12:37:43;;;;;;;4.68;2.25;;;;;;;;;;5047072;28;20040;-64
2023/06/12 12:40:10;;;;;;;7.90;2.00;;;;;;;;;;5053305;28;20022;-63
2023/06/12 12:42:47;;;;;;;4.18;2.08;;;;;;;;;;5053512;28;20103;-65
2023/06/12 12:45:15;;;;;;;4.03;2.00;;;;;;;;;;5053360;28;20112;-63
2023/06/12 12:47:40;;;;;;;8.07;1.88;;;;;;;;;;5053672;28;20025;-62
2023/06/12 12:50:07;;;;;;;3.40;1.90;;;;;;;;;;5053436;28;20032;-62
2023/06/12 12:52:33;;;;;;;5.22;2.00;;;;;;;;;;5046781;28;20502;-63
2023/06/12 12:55:00;;;;;;;3.85;1.67;;;;;;;;;;5047025;28;20103;-61
2023/06/12 12:57:33;;;;;;;2.95;1.98;;;;;;;;;;5053412;28;20211;-61
2023/06/12 13:00:00;;;;;;;5.78;2.25;;;;;;;;;;5053362;28;20095;-61
2023/06/12 13:02:27;;;;;;;8.45;2.03;;;;;;;;;;5033708;28;20025;-61
2023/06/12 13:04:53;;;;;;;9.70;1.90;;;;;;;;;;5033122;28;20029;-66
2023/06/12 13:07:19;;;;;;;12.15;2.05;;;;;;;;;;5032910;28;20041;-65
2023/06/12 13:09:44;;;;;;;3.85;1.90;;;;;;;;;;5033003;28;20049;-61
2023/06/12 13:12:10;;;;;;;8.77;1.90;;;;;;;;;;5050281;28;20033;-62
2023/06/12 13:14:36;;;;;;;7.93;1.75;;;;;;;;;;5053062;28;20071;-64
2023/06/12 13:17:04;;;;;;;5.22;1.83;;;;;;;;;;5052802;28;20117;-61
2023/06/12 13:19:29;;;;;;;6.90;1.88;;;;;;;;;;5052633;28;20030;-61
2023/06/12 13:21:55;;;;;;;4.18;1.75;;;;;;;;;;5042844;28;20029;-64
2023/06/12 13:24:20;;;;;;;4.25;1.70;;;;;;;;;;5032758;28;20033;-62
2023/06/12 13:26:46;;;;;;;3.75;1.60;;;;;;;;;;5032815;28;20075;-63
2023/06/12 13:29:12;;;;;;;3.80;1.70;;;;;;;;;;5032576;28;20030;-64
2023/06/12 13:31:37;;;;;;;3.10;1.60;;;;;;;;;;5046837;28;20037;-62
2023/06/12 13:34:05;;;;;;;7.72;2.15;;;;;;;;;;5052326;28;20029;-62
2023/06/12 13:36:32;;;;;;;2.97;1.35;;;;;;;;;;5052445;28;20082;-61
2023/06/12 13:38:58;;;;;;;5.55;1.85;;;;;;;;;;5052661;28;20033;-62
2023/06/12 13:41:23;;;;;;;7.05;1.73;;;;;;;;;;5052292;28;20045;-62
2023/06/12 13:43:49;;;;;;;5.25;1.80;;;;;;;;;;5051361;28;20036;-62
2023/06/12 13:46:15;;;;;;;6.68;1.80;;;;;;;;;;5040728;28;20520;-62
2023/06/12 13:48:40;;;;;;;2.00;1.80;;;;;;;;;;5032336;28;20633;-62
2023/06/12 13:51:06;;;;;;;12.15;2.00;;;;;;;;;;5039867;28;20048;-62
2023/06/12 13:53:31;;;;;;;6.53;1.80;;;;;;;;;;5032498;28;20033;-62
2023/06/12 13:55:57;;;;;;;8.25;1.95;;;;;;;;;;5032465;28;20030;-62
2023/06/12 13:58:22;;;;;;;8.05;2.00;;;;;;;;;;5031930;28;20044;-63
2023/06/12 14:00:48;;;;;;;8.98;1.70;;;;;;;;;;5014488;28;20021;-62
2023/06/12 14:03:13;;;;;;;3.47;1.50;;;;;;;;;;5032120;28;20025;-62
2023/06/12 14:05:39;;;;;;;2.40;1.70;;;;;;;;;;5031955;28;20108;-62
2023/06/12 14:08:05;;;;;;;1.73;1.63;;;;;;;;;;5031856;28;20034;-62
2023/06/12 14:10:32;;;;;;;4.25;1.70;;;;;;;;;;5031885;28;20053;-62
2023/06/12 14:12:57;;;;;;;4.85;1.55;;;;;;;;;;5031926;28;20033;-62
2023/06/12 14:15:23;;;;;;;6.03;1.95;;;;;;;;;;5031808;28;20033;-62
2023/06/12 14:17:49;;;;;;;7.93;1.58;;;;;;;;;;5041742;28;20083;-61
2023/06/12 14:20:15;;;;;;;2.28;1.50;;;;;;;;;;5051403;28;20029;-61
2023/06/12 14:22:44;;;;;;;9.98;1.83;;;;;;;;;;5051573;28;20025;-62
2023/06/12 14:25:10;;;;;;;5.68;1.67;;;;;;;;;;5050770;28;20033;-64
2023/06/12 14:27:36;;;;;;;16.55;2.50;;;;;;;;;;5051480;28;20033;-63
2023/06/12 14:30:02;;;;;;;10.52;1.88;;;;;;;;;;5050142;28;20051;-63
2023/06/12 14:32:28;;;;;;;3.88;1.70;;;;;;;;;;5051320;28;20025;-61
2023/06/12 14:34:54;;;;;;;6.38;1.88;;;;;;;;;;5051314;28;20033;-63
2023/06/12 14:37:19;;;;;;;6.95;2.38;;;;;;;;;;5045205;28;20477;-64
2023/06/12 14:39:45;;;;;;;1.75;1.50;;;;;;;;;;5031652;28;20416;-62
2023/06/12 14:42:10;;;;;;;4.63;1.77;;;;;;;;;;5031340;28;20030;-63
2023/06/12 14:44:36;;;;;;;5.07;1.70;;;;;;;;;;5031231;28;20389;-63